Terminal Aerodrome Forecast
Issued by NWS Jacksonville, FL

Home | Current Version | Previous Version | Text Only | Print | Product List | Glossary On
Versions: 1 2 3 4 5 6 7 8 9 10 11 12 13 14 15 16 17 18 19 20 21 22 23 24 25
000
FTUS42 KJAX 020000 AAA
TAFGNV
TAF AMD
KGNV 020017Z 0200/0224 VRB06KT P6SM VCTS SCT040CB SCT250
     FM020300 VRB02KT P6SM SKC
      TEMPO 0208/0211 4SM BR
     FM021800 13006KT P6SM SCT035 SCT250
     FM022000 11008KT P6SM VCTS SCT040CB BKN250
      TEMPO 0222/0224 3SM TSRA BKN035CB=

USA.gov is the U.S. government's official web portal to all federal, state and local government web resources and services.